Time;durP1;ratioP1;P1;durP2;ratioP2;P2;SDS_P1;SDS_P2;PMS_P1;PMS_P2;Temp;Humidity;BMP_temperature;BMP_pressure;BME280_temperature;BME280_humidity;BME280_pressure;Samples;Min_cycle;Max_cycle;Signal;HPM_P1;HPM_P2
2022/06/28 00:00:55;;;;;;;10.13;7.55;;;;;;;18.16;58.50;101948.97;5051055;28;20068;-65
2022/06/28 00:03:22;;;;;;;8.50;7.35;;;;;;;18.14;58.61;101944.66;5050887;28;20045;-66
2022/06/28 00:05:49;;;;;;;8.00;7.20;;;;;;;18.09;58.14;101937.75;5050912;28;20044;-66
2022/06/28 00:08:15;;;;;;;7.88;7.07;;;;;;;18.08;58.24;101940.59;5037247;28;20069;-66
2022/06/28 00:10:42;;;;;;;8.05;7.30;;;;;;;18.07;58.56;101936.16;5030231;28;20038;-66
2022/06/28 00:13:13;;;;;;;9.38;7.10;;;;;;;18.07;58.71;101947.03;5030787;28;20045;-66
2022/06/28 00:18:24;;;;;;;9.30;7.57;;;;;;;18.04;58.39;101937.28;5032810;28;20040;-67
2022/06/28 00:20:51;;;;;;;8.32;6.30;;;;;;;18.05;58.39;101947.16;5034303;28;20038;-66
2022/06/28 00:23:22;;;;;;;6.30;5.70;;;;;;;18.06;58.20;101942.59;5034719;28;20036;-66
2022/06/28 00:25:49;;;;;;;7.30;6.53;;;;;;;18.06;58.54;101945.31;5032914;28;20108;-66
2022/06/28 00:28:16;;;;;;;7.68;6.25;;;;;;;18.05;58.52;101947.16;5034202;28;20041;-66
2022/06/28 00:30:42;;;;;;;6.38;5.78;;;;;;;18.05;58.25;101943.59;5032476;28;20484;-66
2022/06/28 00:33:10;;;;;;;6.13;5.50;;;;;;;18.04;58.09;101944.56;5032703;28;20049;-66
2022/06/28 00:35:37;;;;;;;6.68;6.07;;;;;;;18.03;57.99;101943.72;5034325;28;20037;-66
2022/06/28 00:38:04;;;;;;;6.15;5.45;;;;;;;18.02;58.04;101941.13;5032857;28;20041;-66
2022/06/28 00:40:32;;;;;;;6.22;5.63;;;;;;;18.00;57.75;101943.13;5034159;28;20037;-66
2022/06/28 00:43:00;;;;;;;6.28;5.68;;;;;;;17.97;57.67;101948.81;5034523;28;20064;-65
2022/06/28 00:45:27;;;;;;;6.32;5.72;;;;;;;17.96;57.70;101944.38;5047238;28;20037;-66
2022/06/28 00:47:55;;;;;;;6.65;5.93;;;;;;;17.93;57.72;101944.63;5034321;28;20095;-66
2022/06/28 00:50:21;;;;;;;6.38;5.80;;;;;;;17.91;57.56;101952.06;5032564;28;20052;-66
2022/06/28 00:53:02;;;;;;;10.38;6.25;;;;;;;17.89;57.82;101957.63;5032978;28;20100;-66
2022/06/28 00:55:29;;;;;;;7.63;6.78;;;;;;;17.88;57.99;101966.75;5034480;28;20046;-66
2022/06/28 00:57:56;;;;;;;7.43;6.72;;;;;;;17.84;57.55;101950.84;5034030;28;20092;-66
2022/06/28 01:00:22;;;;;;;8.82;6.50;;;;;;;17.81;57.61;101951.94;5033816;28;20596;-66
2022/06/28 01:02:50;;;;;;;7.80;6.22;;;;;;;17.78;57.40;101955.78;5032985;28;20523;-66
2022/06/28 01:05:17;;;;;;;8.10;6.30;;;;;;;17.77;57.87;101953.19;5033454;28;20057;-67
2022/06/28 01:07:44;;;;;;;6.53;5.15;;;;;;;17.71;57.75;101957.28;5049536;28;20048;-66
2022/06/28 01:10:11;;;;;;;8.55;4.55;;;;;;;17.68;57.37;101964.81;5052177;28;20126;-66
2022/06/28 01:12:40;;;;;;;4.88;3.00;;;;;;;17.61;57.60;101960.84;5053388;28;20029;-66
2022/06/28 01:15:08;;;;;;;4.28;2.45;;;;;;;17.52;57.66;101965.19;5052121;28;20132;-66
2022/06/28 01:18:06;;;;;;;3.70;2.90;;;;;;;17.41;57.26;101963.38;5012633;28;20053;-66
2022/06/28 01:20:45;;;;;;;3.60;3.30;;;;;;;17.35;57.33;101974.72;5012433;28;20041;-66
2022/06/28 01:23:22;;;;;;;4.47;4.00;;;;;;;17.29;57.59;101963.50;5012385;28;20038;-66
2022/06/28 01:26:03;;;;;;;4.28;3.88;;;;;;;17.23;57.72;101970.31;5024995;28;20045;-66
2022/06/28 01:28:41;;;;;;;5.82;4.68;;;;;;;17.16;57.93;101969.06;5033992;28;20053;-66
2022/06/28 01:31:18;;;;;;;6.28;4.70;;;;;;;17.14;57.81;101971.91;5032064;28;20473;-65
2022/06/28 01:33:49;;;;;;;5.82;5.22;;;;;;;17.14;57.81;101968.34;5032804;28;20272;-66
2022/06/28 01:36:16;;;;;;;5.50;4.93;;;;;;;17.14;57.86;101971.06;5040376;28;20090;-66
2022/06/28 01:38:43;;;;;;;5.55;5.05;;;;;;;17.15;58.11;101975.50;5035046;28;20037;-66
2022/06/28 01:44:04;;;;;;;7.43;5.80;;;;;;;17.18;58.02;101977.09;5051927;28;20526;-67
2022/06/28 01:46:34;;;;;;;6.18;5.57;;;;;;;17.15;58.25;101979.06;5038550;28;20034;-66
2022/06/28 01:49:05;;;;;;;6.00;4.95;;;;;;;17.12;58.03;101973.88;5031543;28;20132;-66
2022/06/28 01:51:33;;;;;;;5.97;5.30;;;;;;;17.10;57.87;101973.16;5031387;28;20045;-65
2022/06/28 01:54:02;;;;;;;6.47;5.45;;;;;;;17.08;57.75;101976.94;5031586;28;20069;-65
2022/06/28 01:56:35;;;;;;;5.63;4.55;;;;;;;17.06;57.91;101974.34;5063826;28;20049;-66
2022/06/28 01:59:10;;;;;;;5.10;4.50;;;;;;;17.03;58.20;101977.31;5032563;28;20061;-66
2022/06/28 02:02:00;;;;;;;5.82;2.70;;;;;;;17.02;58.05;101974.72;5029287;28;20490;-66
2022/06/28 02:04:38;;;;;;;6.15;3.28;;;;;;;16.97;57.79;101990.50;5034894;28;20048;-66
2022/06/28 02:07:05;;;;;;;7.63;3.90;;;;;;;16.92;58.10;101976.44;5051855;28;20045;-66
2022/06/28 02:09:37;;;;;;;4.95;4.45;;;;;;;16.88;57.68;101980.38;5035325;28;20047;-66
2022/06/28 02:12:04;;;;;;;4.10;3.70;;;;;;;16.86;57.96;101987.78;5050855;28;20041;-65
2022/06/28 02:14:31;;;;;;;5.25;3.83;;;;;;;16.83;58.21;101986.19;5050863;28;20048;-66
2022/06/28 02:17:01;;;;;;;7.15;4.25;;;;;;;16.78;58.27;101997.41;5018649;28;20136;-66
2022/06/28 02:19:28;;;;;;;4.90;4.40;;;;;;;16.76;58.30;101993.09;5064209;28;20053;-65
2022/06/28 02:21:55;;;;;;;5.15;4.53;;;;;;;16.75;58.17;101999.50;5032066;28;20103;-66
2022/06/28 02:24:26;;;;;;;6.28;5.00;;;;;;;16.74;58.29;101998.63;5034995;28;20060;-66
2022/06/28 02:26:53;;;;;;;9.63;5.40;;;;;;;16.75;58.58;102008.50;5049889;28;20041;-66
2022/06/28 02:29:19;;;;;;;7.47;5.20;;;;;;;16.76;58.45;102009.34;5050760;28;20041;-65
2022/06/28 02:31:46;;;;;;;5.78;5.13;;;;;;;16.75;58.63;102008.50;5050394;28;20040;-66
2022/06/28 02:40:21;;;;;;;9.05;5.00;;;;;;;16.74;58.35;102017.63;5050763;28;20081;-65
2022/06/28 02:42:31;;;;;;;3.95;3.55;;;;;;;16.70;58.25;102021.56;5029951;28;20331;-66
2022/06/28 02:45:00;;;;;;;4.95;4.10;;;;;;;16.70;58.60;102017.97;5031817;28;20069;-66
2022/06/28 02:47:37;;;;;;;5.65;4.22;;;;;;;16.67;58.50;102019.09;5061147;28;20037;-66
2022/06/28 02:50:05;;;;;;;5.97;4.38;;;;;;;16.67;58.44;102021.78;5023293;28;20051;-65
2022/06/28 02:52:33;;;;;;;5.60;4.60;;;;;;;16.66;58.63;102032.75;5033848;28;20045;-65
2022/06/28 02:55:00;;;;;;;6.20;4.20;;;;;;;16.62;58.20;102037.53;5050301;28;20036;-66
2022/06/28 02:57:27;;;;;;;4.57;4.10;;;;;;;16.58;58.86;102040.59;5050291;28;20041;-65
2022/06/28 02:59:57;;;;;;;4.50;4.05;;;;;;;16.58;58.59;102046.88;5049818;28;20438;-66
2022/06/28 03:02:26;;;;;;;6.95;4.43;;;;;;;16.58;58.73;102043.31;5051586;28;20052;-66
2022/06/28 03:04:54;;;;;;;5.60;4.18;;;;;;;16.51;58.90;102042.94;5033896;28;20043;-65
2022/06/28 03:07:21;;;;;;;6.65;4.60;;;;;;;16.47;58.67;102042.28;5050375;28;20106;-65
2022/06/28 03:09:48;;;;;;;6.22;4.35;;;;;;;16.43;59.01;102040.81;5043097;28;20488;-66
2022/06/28 03:12:33;;;;;;;4.35;3.95;;;;;;;16.41;58.74;102055.47;5030053;28;20044;-66
2022/06/28 03:14:59;;;;;;;4.53;4.10;;;;;;;16.42;59.08;102052.63;5063093;28;20080;-66
2022/06/28 03:17:27;;;;;;;4.88;4.38;;;;;;;16.41;59.22;102060.88;5030358;28;20296;-64
2022/06/28 03:19:53;;;;;;;5.05;4.55;;;;;;;16.39;59.11;102060.13;5030454;28;20037;-65
2022/06/28 03:22:25;;;;;;;6.45;4.22;;;;;;;16.37;58.84;102065.66;5031537;28;20033;-67
2022/06/28 03:24:52;;;;;;;6.95;4.50;;;;;;;16.37;58.66;102062.97;5064538;28;20051;-65
2022/06/28 03:27:18;;;;;;;5.13;4.20;;;;;;;16.38;58.83;102061.97;5030536;28;20536;-66
2022/06/28 03:29:45;;;;;;;6.07;4.30;;;;;;;16.39;59.12;102065.56;5035190;28;20060;-67
2022/06/28 03:32:19;;;;;;;5.72;4.60;;;;;;;16.40;59.07;102059.16;5049995;28;20041;-65
2022/06/28 03:34:47;;;;;;;4.88;4.30;;;;;;;16.40;58.93;102062.72;5050956;28;20052;-66
2022/06/28 03:37:17;;;;;;;7.85;4.80;;;;;;;16.40;58.86;102054.59;5049909;28;20495;-66
2022/06/28 03:39:49;;;;;;;7.25;4.72;;;;;;;16.41;59.33;102063.59;5043585;28;20042;-66
2022/06/28 03:42:21;;;;;;;8.43;4.35;;;;;;;16.43;59.11;102070.63;5029814;28;20495;-66
2022/06/28 03:44:51;;;;;;;6.00;4.35;;;;;;;16.42;59.12;102070.75;5029901;28;20045;-65
2022/06/28 03:47:19;;;;;;;4.15;3.75;;;;;;;16.41;58.96;102075.31;5063219;28;20069;-67
2022/06/28 03:49:54;;;;;;;4.18;3.55;;;;;;;16.41;58.93;102071.72;5036389;28;20091;-66
2022/06/28 03:52:39;;;;;;;5.35;4.15;;;;;;;16.39;59.17;102074.56;5051351;28;20410;-64
2022/06/28 03:55:13;;;;;;;5.18;4.60;;;;;;;16.39;59.12;102077.25;5055064;28;20037;-65
2022/06/28 03:57:45;;;;;;;6.55;4.10;;;;;;;16.37;59.15;102079.22;5053666;28;20033;-65
2022/06/28 04:00:13;;;;;;;6.20;3.83;;;;;;;16.36;59.06;102082.06;5044788;28;20041;-64
2022/06/28 04:02:46;;;;;;;3.92;3.53;;;;;;;16.34;59.00;102079.44;5033593;28;20107;-64
2022/06/28 04:05:22;;;;;;;5.75;4.53;;;;;;;16.34;59.22;102074.00;5033399;28;20059;-66
2022/06/28 04:07:49;;;;;;;5.35;4.07;;;;;;;16.34;59.01;102076.72;5033463;28;20041;-66
2022/06/28 04:10:20;;;;;;;7.55;3.97;;;;;;;16.31;59.19;102082.38;5043874;28;20052;-66
2022/06/28 04:12:49;;;;;;;5.63;4.28;;;;;;;16.29;59.41;102078.91;5053180;28;20061;-66
2022/06/28 04:15:21;;;;;;;5.80;3.72;;;;;;;16.29;59.54;102081.63;5053092;28;20053;-66
2022/06/28 04:17:59;;;;;;;6.93;4.40;;;;;;;16.29;59.42;102087.03;5053231;28;20041;-66
2022/06/28 04:20:36;;;;;;;6.93;4.93;;;;;;;16.29;59.13;102084.34;5041092;28;20056;-66
2022/06/28 04:23:05;;;;;;;6.13;5.00;;;;;;;16.28;59.68;102088.03;5033204;28;20046;-66
2022/06/28 04:25:33;;;;;;;7.00;5.20;;;;;;;16.27;59.56;102086.28;5033327;28;20141;-65
2022/06/28 04:28:12;;;;;;;6.72;5.05;;;;;;;16.27;59.59;102094.44;5033076;28;20463;-65
2022/06/28 04:30:49;;;;;;;6.80;5.07;;;;;;;16.27;59.49;102082.72;5050234;28;20049;-65
2022/06/28 04:33:17;;;;;;;7.47;5.00;;;;;;;16.29;59.74;102091.59;5052982;28;20045;-65
2022/06/28 04:35:44;;;;;;;6.70;5.53;;;;;;;16.31;59.74;102089.63;5054029;28;20099;-65
2022/06/28 04:38:10;;;;;;;8.88;5.57;;;;;;;16.31;59.66;102095.06;5052896;28;20071;-65
2022/06/28 04:40:50;;;;;;;6.88;5.32;;;;;;;16.32;59.96;102085.94;5035090;28;20099;-65
2022/06/28 04:43:39;;;;;;;5.95;5.20;;;;;;;16.35;60.11;102083.91;5033306;28;20613;-65
2022/06/28 04:46:06;;;;;;;8.57;5.50;;;;;;;16.40;60.14;102084.41;5066871;28;20048;-65
2022/06/28 04:48:36;;;;;;;6.13;5.25;;;;;;;16.43;59.93;102084.19;5034335;28;20404;-65
2022/06/28 04:51:12;;;;;;;8.98;5.35;;;;;;;16.47;59.97;102079.41;5052767;28;20049;-65
2022/06/28 04:53:47;;;;;;;6.85;5.03;;;;;;;16.50;60.01;102088.16;5052821;28;20064;-65
2022/06/28 04:56:17;;;;;;;7.65;5.78;;;;;;;16.53;60.06;102085.22;5052423;28;20111;-66
2022/06/28 04:58:46;;;;;;;6.22;5.32;;;;;;;16.57;60.13;102084.97;5050776;28;20045;-66
2022/06/28 05:01:13;;;;;;;9.52;6.18;;;;;;;16.61;60.33;102079.19;5052332;28;20053;-66
2022/06/28 05:03:43;;;;;;;7.53;5.60;;;;;;;16.66;60.54;102081.59;5051524;28;20060;-65
2022/06/28 05:06:30;;;;;;;6.03;5.35;;;;;;;16.72;60.22;102090.13;5053648;28;20389;-65
2022/06/28 05:08:58;;;;;;;9.88;6.60;;;;;;;16.77;60.53;102085.19;5038677;28;20083;-66
2022/06/28 05:11:47;;;;;;;7.97;6.10;;;;;;;16.81;60.75;102083.97;5052099;28;20089;-65
2022/06/28 05:14:18;;;;;;;7.95;5.90;;;;;;;16.89;60.42;102091.53;5052530;28;20652;-66
2022/06/28 05:16:45;;;;;;;8.35;6.03;;;;;;;16.94;60.49;102081.16;5052220;28;20044;-65
2022/06/28 05:19:13;;;;;;;7.43;5.85;;;;;;;17.00;60.54;102088.84;5046060;28;20103;-65
2022/06/28 05:21:39;;;;;;;9.15;6.38;;;;;;;17.05;60.85;102089.34;5031908;28;20068;-65
2022/06/28 05:24:06;;;;;;;7.72;5.88;;;;;;;17.12;60.61;102092.47;5033438;28;20045;-65
2022/06/28 05:26:40;;;;;;;11.07;6.00;;;;;;;17.18;60.28;102083.84;5031998;28;20052;-66
2022/06/28 05:29:16;;;;;;;8.10;6.20;;;;;;;17.24;60.70;102082.47;5032401;28;20453;-66
2022/06/28 05:31:44;;;;;;;11.52;5.70;;;;;;;17.28;60.85;102087.53;5033017;28;20043;-66
2022/06/28 05:34:12;;;;;;;7.90;6.18;;;;;;;17.33;60.86;102081.75;5032057;28;20037;-66
2022/06/28 05:36:40;;;;;;;8.00;6.15;;;;;;;17.38;60.97;102084.97;5033220;28;20103;-66
2022/06/28 05:39:08;;;;;;;9.55;5.88;;;;;;;17.42;60.91;102081.00;5066620;28;20033;-66
2022/06/28 05:41:35;;;;;;;10.40;6.40;;;;;;;17.46;61.20;102077.06;5032916;28;20037;-67
2022/06/28 05:44:06;;;;;;;9.00;5.97;;;;;;;17.51;61.21;102072.13;5032103;28;20088;-66
2022/06/28 05:46:33;;;;;;;13.23;6.43;;;;;;;17.56;61.24;102075.31;5031742;28;20515;-66
2022/06/28 05:49:01;;;;;;;8.55;6.72;;;;;;;17.61;60.85;102074.94;5034694;28;20071;-66
2022/06/28 05:51:29;;;;;;;8.60;6.85;;;;;;;17.68;60.96;102076.22;5032967;28;20045;-66
2022/06/28 05:53:57;;;;;;;9.68;6.13;;;;;;;17.75;61.42;102081.00;5031807;28;20072;-66
2022/06/28 05:56:24;;;;;;;9.13;5.60;;;;;;;17.85;61.05;102074.84;5032907;28;20564;-66
2022/06/28 05:58:51;;;;;;;15.85;6.20;;;;;;;17.96;61.51;102074.84;5032403;28;20048;-66
2022/06/28 06:01:19;;;;;;;10.88;5.88;;;;;;;18.05;61.40;102065.91;5031304;28;20516;-66
2022/06/28 06:03:45;;;;;;;9.00;5.80;;;;;;;18.17;61.44;102069.47;5031623;28;20140;-67
2022/06/28 06:06:12;;;;;;;7.28;5.47;;;;;;;18.29;61.23;102073.88;5066581;28;20068;-66
2022/06/28 06:08:41;;;;;;;8.27;5.40;;;;;;;18.40;61.19;102071.97;5035741;28;20395;-66
2022/06/28 06:11:08;;;;;;;10.85;5.30;;;;;;;18.53;60.59;102081.81;5032157;28;20641;-66
2022/06/28 06:13:39;;;;;;;11.43;5.70;;;;;;;18.67;60.94;102084.28;5030955;28;20052;-66
2022/06/28 06:16:08;;;;;;;14.00;6.10;;;;;;;18.81;60.81;102083.94;5014003;28;20048;-66
2022/06/28 06:18:35;;;;;;;7.78;4.78;;;;;;;18.97;60.65;102078.91;5014321;28;20034;-66
2022/06/28 06:21:02;;;;;;;8.13;5.03;;;;;;;19.14;60.26;102087.47;5050649;28;20098;-64
2022/06/28 06:23:31;;;;;;;8.18;4.55;;;;;;;19.33;60.14;102091.19;5052192;28;20506;-67
2022/06/28 06:26:02;;;;;;;12.43;4.80;;;;;;;19.51;60.00;102094.13;5047644;28;20052;-65
2022/06/28 06:28:29;;;;;;;11.27;5.10;;;;;;;19.65;59.86;102092.94;5040936;28;20071;-66
2022/06/28 06:30:56;;;;;;;9.95;4.68;;;;;;;19.80;59.48;102087.97;5050690;28;20076;-66
2022/06/28 06:34:09;;;;;;;6.68;4.40;;;;;;;20.00;59.25;102093.31;5052170;28;20123;-65
2022/06/28 06:36:46;;;;;;;9.95;5.35;;;;;;;20.22;58.85;102094.09;5049259;28;20056;-66
2022/06/28 06:39:14;;;;;;;13.65;5.20;;;;;;;20.34;58.71;102086.66;5030548;28;20148;-67
2022/06/28 06:41:41;;;;;;;12.55;5.03;;;;;;;20.46;58.39;102091.88;5046882;28;20127;-65
2022/06/28 06:44:08;;;;;;;8.45;4.88;;;;;;;20.61;58.10;102097.75;5032090;28;20053;-66
2022/06/28 06:46:36;;;;;;;17.60;4.70;;;;;;;20.74;57.65;102094.72;5031711;28;20049;-65
2022/06/28 06:49:03;;;;;;;9.55;4.43;;;;;;;20.86;57.57;102094.47;5031828;28;20045;-66
2022/06/28 06:51:30;;;;;;;7.32;4.10;;;;;;;20.93;57.32;102100.19;5030343;28;20044;-66
2022/06/28 06:53:58;;;;;;;7.75;3.58;;;;;;;21.03;57.23;102108.38;5030431;28;20052;-66
2022/06/28 06:56:25;;;;;;;10.05;4.20;;;;;;;21.20;56.95;102107.63;5032122;28;20041;-65
2022/06/28 06:58:52;;;;;;;9.93;4.13;;;;;;;21.32;56.56;102113.81;5030477;28;20053;-66
2022/06/28 07:01:18;;;;;;;8.30;4.30;;;;;;;21.41;55.96;102110.19;5030065;28;20045;-65
2022/06/28 07:04:06;;;;;;;7.57;3.60;;;;;;;21.50;55.68;102110.16;5028516;28;20507;-65
2022/06/28 07:06:33;;;;;;;8.23;3.75;;;;;;;21.65;55.62;102102.34;5032737;28;20049;-66
2022/06/28 07:09:00;;;;;;;8.52;3.40;;;;;;;21.80;55.42;102109.03;5030535;28;20750;-66
2022/06/28 07:11:29;;;;;;;7.15;3.25;;;;;;;21.94;55.24;102110.41;5030093;28;20412;-68
2022/06/28 07:14:01;;;;;;;7.85;2.88;;;;;;;22.04;54.14;102108.50;5030189;28;20069;-67
2022/06/28 07:16:28;;;;;;;11.00;3.33;;;;;;;22.16;54.30;102114.63;5029990;28;20103;-67
2022/06/28 07:18:57;;;;;;;10.63;3.53;;;;;;;22.31;53.57;102118.59;5030181;28;20087;-68
2022/06/28 07:21:24;;;;;;;8.80;3.58;;;;;;;22.44;53.68;102112.72;5035389;28;20041;-65
2022/06/28 07:23:54;;;;;;;9.43;2.90;;;;;;;22.49;52.81;102107.66;5050005;28;20449;-65
2022/06/28 07:26:21;;;;;;;7.60;2.60;;;;;;;22.54;52.67;102113.50;5030068;28;20124;-65
2022/06/28 07:28:49;;;;;;;9.88;2.60;;;;;;;22.64;52.27;102110.69;5033488;28;20036;-67
2022/06/28 07:31:15;;;;;;;7.22;2.78;;;;;;;22.67;52.03;102118.59;5049835;28;20043;-66
2022/06/28 07:33:43;;;;;;;7.50;2.70;;;;;;;22.77;52.06;102114.75;5049763;28;20053;-66
2022/06/28 07:36:15;;;;;;;11.68;2.03;;;;;;;22.84;51.49;102117.75;5049973;28;20091;-66
2022/06/28 07:38:42;;;;;;;10.40;1.88;;;;;;;22.98;51.52;102116.31;5049826;28;20140;-66
2022/06/28 07:41:18;;;;;;;6.18;1.80;;;;;;;23.12;50.81;102113.03;5051071;28;20102;-66
2022/06/28 07:44:03;;;;;;;8.88;2.28;;;;;;;23.26;50.58;102111.59;5051850;28;20067;-66
2022/06/28 07:46:31;;;;;;;4.53;1.67;;;;;;;23.37;50.15;102114.91;5049840;28;20045;-67
2022/06/28 07:48:58;;;;;;;4.65;1.90;;;;;;;23.45;49.69;102120.44;5051273;28;20035;-66
2022/06/28 07:54:14;;;;;;;4.85;1.80;;;;;;;23.63;49.03;102114.94;5049715;28;20045;-67
2022/06/28 07:56:52;;;;;;;6.35;2.10;;;;;;;23.81;48.91;102111.25;5049871;28;20053;-66
2022/06/28 07:59:18;;;;;;;4.30;2.10;;;;;;;23.92;48.39;102111.81;5049691;28;20376;-67
2022/06/28 08:01:47;;;;;;;7.75;2.08;;;;;;;24.04;48.57;102112.38;5049309;28;20052;-68
2022/06/28 08:04:20;;;;;;;5.88;1.90;;;;;;;24.20;48.00;102106.94;5030450;28;20049;-67
2022/06/28 08:06:49;;;;;;;5.40;2.00;;;;;;;24.32;48.23;102108.38;5028780;28;20038;-67
2022/06/28 08:09:15;;;;;;;3.80;1.83;;;;;;;24.42;47.39;102090.88;5036372;28;20375;-67
2022/06/28 08:11:42;;;;;;;4.90;1.52;;;;;;;24.49;47.34;102090.03;5048154;28;20529;-69
2022/06/28 08:14:15;;;;;;;4.68;1.63;;;;;;;24.53;46.41;102094.19;5049596;28;20072;-69
2022/06/28 08:16:42;;;;;;;4.32;1.50;;;;;;;24.60;46.69;102088.88;5032447;28;20124;-69
2022/06/28 08:19:11;;;;;;;9.35;2.40;;;;;;;24.66;46.21;102086.31;5048944;28;20067;-69
2022/06/28 08:21:42;;;;;;;8.52;1.67;;;;;;;24.78;46.17;102096.94;5032753;28;20048;-69
2022/06/28 08:24:09;;;;;;;5.45;1.75;;;;;;;24.89;46.22;102089.22;5050353;28;20069;-69
2022/06/28 08:26:42;;;;;;;8.40;1.77;;;;;;;25.00;45.47;102090.78;5050109;28;20041;-69
2022/06/28 08:29:13;;;;;;;4.72;1.30;;;;;;;25.06;45.05;102076.34;5049797;28;20045;-69
2022/06/28 08:31:40;;;;;;;4.78;1.35;;;;;;;25.14;44.59;102078.22;5051382;28;20090;-68
2022/06/28 08:34:08;;;;;;;8.43;1.63;;;;;;;25.17;44.13;102075.13;5049838;28;20037;-69
2022/06/28 08:36:35;;;;;;;4.25;1.45;;;;;;;25.20;44.19;102072.88;5050553;28;20039;-68
2022/06/28 08:39:03;;;;;;;4.55;1.52;;;;;;;25.27;43.91;102065.69;5044452;28;20112;-69
2022/06/28 08:41:32;;;;;;;3.33;1.45;;;;;;;25.32;43.42;102067.91;5033776;28;20076;-68
2022/06/28 08:43:59;;;;;;;5.32;1.30;;;;;;;25.31;42.91;102063.44;5034150;28;20145;-68
2022/06/28 08:46:26;;;;;;;7.20;1.25;;;;;;;25.29;43.23;102071.88;5052331;28;20136;-75
2022/06/28 08:49:02;;;;;;;4.85;1.48;;;;;;;25.38;43.09;102058.94;5053819;28;20056;-67
2022/06/28 08:51:33;;;;;;;5.28;1.60;;;;;;;25.50;43.14;102063.03;5053706;28;20053;-67
2022/06/28 08:54:04;;;;;;;4.40;1.40;;;;;;;25.60;42.68;102065.56;5053881;28;20072;-71
2022/06/28 08:56:31;;;;;;;3.72;1.40;;;;;;;25.63;42.88;102055.06;5053597;28;20053;-68
2022/06/28 08:58:58;;;;;;;4.05;1.35;;;;;;;25.68;42.45;102050.94;5053910;28;20133;-68
2022/06/28 09:01:25;;;;;;;3.10;1.27;;;;;;;25.69;42.29;102056.28;5053758;28;20037;-68
2022/06/28 09:03:55;;;;;;;4.95;1.40;;;;;;;25.70;41.62;102058.00;5054278;28;20041;-69
2022/06/28 09:06:23;;;;;;;4.28;1.20;;;;;;;25.72;42.12;102064.19;5038127;28;20081;-69
2022/06/28 09:08:50;;;;;;;7.25;1.60;;;;;;;25.80;42.00;102055.88;5034011;28;20384;-69
2022/06/28 09:11:17;;;;;;;4.78;1.02;;;;;;;25.87;41.78;102056.03;5034472;28;20045;-69
2022/06/28 09:13:44;;;;;;;3.80;1.20;;;;;;;25.96;41.30;102052.19;5033557;28;20069;-69
2022/06/28 09:16:11;;;;;;;4.20;1.17;;;;;;;26.00;41.03;102050.78;5033319;28;20052;-69
2022/06/28 09:18:38;;;;;;;3.53;1.20;;;;;;;26.07;41.22;102040.78;5033451;28;20117;-67
2022/06/28 09:21:08;;;;;;;3.33;1.38;;;;;;;26.17;41.17;102035.91;5032942;28;20064;-67
2022/06/28 09:23:37;;;;;;;3.03;1.02;;;;;;;26.29;41.02;102039.94;5033249;28;20550;-68
2022/06/28 09:26:07;;;;;;;4.68;1.08;;;;;;;26.43;40.82;102037.47;5033197;28;20054;-68
2022/06/28 09:28:38;;;;;;;6.72;1.25;;;;;;;26.51;40.45;102045.66;5033383;28;20037;-68
2022/06/28 09:31:22;;;;;;;3.85;1.35;;;;;;;26.56;39.82;102040.47;5033095;28;20104;-68
2022/06/28 09:34:06;;;;;;;4.40;1.55;;;;;;;26.60;40.09;102037.16;5032963;28;20041;-67
2022/06/28 09:36:54;;;;;;;5.10;1.13;;;;;;;26.73;40.02;102036.50;5033345;28;20045;-68
2022/06/28 09:39:27;;;;;;;2.35;0.90;;;;;;;26.88;40.38;102033.81;5033473;28;20080;-69
2022/06/28 09:41:56;;;;;;;2.67;0.85;;;;;;;27.08;40.51;102029.50;5033151;28;20042;-68
2022/06/28 09:44:51;;;;;;;2.58;0.90;;;;;;;27.20;40.07;102033.50;5032480;28;20049;-68
2022/06/28 09:47:17;;;;;;;2.00;0.60;;;;;;;27.22;39.56;102027.81;5033120;28;20053;-67
2022/06/28 09:49:47;;;;;;;3.10;0.70;;;;;;;27.19;39.13;102018.00;5032256;28;20569;-67
2022/06/28 09:52:22;;;;;;;3.63;1.00;;;;;;;27.17;38.86;102022.84;5034796;28;20076;-67
2022/06/28 09:54:55;;;;;;;3.20;1.10;;;;;;;27.23;39.22;102021.25;5052620;28;20045;-67
2022/06/28 09:57:22;;;;;;;3.15;0.90;;;;;;;27.32;38.90;102017.34;5052824;28;20194;-68
2022/06/28 09:59:50;;;;;;;2.35;0.80;;;;;;;27.37;38.65;102019.53;5034336;28;20076;-68
2022/06/28 10:02:18;;;;;;;3.25;0.88;;;;;;;27.46;38.60;102015.63;5032868;28;20068;-69
2022/06/28 10:04:45;;;;;;;4.00;1.27;;;;;;;27.57;38.85;102011.53;5033462;28;20522;-68
2022/06/28 10:07:14;;;;;;;2.50;0.70;;;;;;;27.68;38.30;102011.06;5033034;28;20095;-68
2022/06/28 10:09:41;;;;;;;2.38;0.73;;;;;;;27.67;38.09;102007.47;5032266;28;20061;-68
2022/06/28 10:15:09;;;;;;;4.13;0.80;;;;;;;27.82;37.75;102007.44;5020091;28;20060;-68
2022/06/28 10:17:44;;;;;;;4.93;1.00;;;;;;;27.81;37.75;102008.47;5033226;28;20091;-68
2022/06/28 10:20:12;;;;;;;;;;;;;;;27.83;38.34;102007.22;5034506;28;20045;-68
2022/06/28 10:22:42;;;;;;;2.60;0.93;;;;;;;27.91;37.94;102000.75;5051637;28;19948;-68
2022/06/28 10:25:23;;;;;;;2.10;0.80;;;;;;;27.94;37.53;101999.50;5039051;28;20047;-68
2022/06/28 10:27:52;;;;;;;1.58;0.60;;;;;;;28.00;37.63;101988.53;5030795;28;20124;-68
2022/06/28 10:30:28;;;;;;;3.88;1.13;;;;;;;28.08;37.12;102002.19;5031742;28;20065;-68
2022/06/28 10:33:13;;;;;;;2.97;1.00;;;;;;;28.08;36.64;101990.28;5033575;28;20049;-68
2022/06/28 10:35:42;;;;;;;3.20;1.05;;;;;;;28.06;36.61;101989.63;5032218;28;20060;-67
2022/06/28 10:38:09;;;;;;;3.80;0.82;;;;;;;28.05;36.80;101987.94;5033128;28;20107;-68
2022/06/28 10:40:42;;;;;;;2.70;1.00;;;;;;;28.07;36.51;101977.53;5034371;28;20049;-68
2022/06/28 10:43:28;;;;;;;3.33;1.08;;;;;;;28.10;36.72;101978.00;5034205;28;20041;-68
2022/06/28 10:46:04;;;;;;;2.95;1.02;;;;;;;28.18;37.05;101969.59;5034274;28;20132;-68
2022/06/28 10:48:51;;;;;;;2.33;0.95;;;;;;;28.29;37.05;101973.78;5035783;28;20041;-67
2022/06/28 10:51:19;;;;;;;2.78;1.10;;;;;;;28.44;36.94;101966.28;5034530;28;20057;-68
2022/06/28 10:54:07;;;;;;;3.85;1.00;;;;;;;28.51;36.82;101969.09;5034968;28;20051;-68
2022/06/28 10:56:44;;;;;;;1.98;0.95;;;;;;;28.62;36.55;101963.00;5031821;28;20136;-67
2022/06/28 10:59:35;;;;;;;4.28;0.90;;;;;;;28.69;36.92;101961.16;5046457;28;20033;-67
2022/06/28 11:02:03;;;;;;;3.08;1.20;;;;;;;28.88;37.23;101962.38;5030337;28;20037;-68
2022/06/28 11:04:31;;;;;;;3.08;0.70;;;;;;;29.08;36.91;101955.09;5031776;28;20575;-68
2022/06/28 11:07:03;;;;;;;2.75;0.95;;;;;;;29.25;36.12;101954.75;5029069;28;20037;-68
2022/06/28 11:09:46;;;;;;;2.90;0.95;;;;;;;29.36;36.13;101949.47;5031508;28;20080;-68
2022/06/28 11:12:36;;;;;;;2.83;1.02;;;;;;;29.48;35.92;101949.78;5031177;28;20061;-69
2022/06/28 11:15:11;;;;;;;1.92;0.80;;;;;;;29.60;36.25;101950.03;5023209;28;20049;-68
2022/06/28 11:17:43;;;;;;;2.15;1.10;;;;;;;29.69;35.74;101943.22;5032239;28;20048;-68
2022/06/28 11:20:14;;;;;;;6.07;1.23;;;;;;;29.71;34.97;101935.56;5031374;28;20042;-68
2022/06/28 11:22:47;;;;;;;2.55;1.10;;;;;;;29.63;34.69;101931.06;5029298;28;20041;-68
2022/06/28 11:25:19;;;;;;;2.22;1.05;;;;;;;29.63;34.13;101924.69;5031353;28;20099;-67
2022/06/28 11:27:52;;;;;;;2.42;0.80;;;;;;;29.59;34.47;101929.78;5031675;28;20045;-68
2022/06/28 11:30:23;;;;;;;2.15;0.80;;;;;;;29.53;34.42;101927.00;5029567;28;20046;-68
2022/06/28 11:32:50;;;;;;;3.65;0.90;;;;;;;29.55;34.83;101931.28;5031556;28;20046;-68
2022/06/28 11:35:20;;;;;;;4.53;1.05;;;;;;;29.56;35.14;101926.59;5031681;28;20049;-68
2022/06/28 11:37:56;;;;;;;2.78;0.80;;;;;;;29.63;35.24;101933.00;5045051;28;20041;-68
2022/06/28 11:40:28;;;;;;;1.88;0.90;;;;;;;29.70;34.97;101917.25;5051991;28;20040;-68
2022/06/28 11:43:12;;;;;;;2.17;1.23;;;;;;;29.75;34.61;101916.66;5051740;28;20060;-68
2022/06/28 11:45:42;;;;;;;2.28;0.90;;;;;;;29.87;35.04;101909.44;5032679;28;20049;-68
2022/06/28 11:48:13;;;;;;;2.35;0.90;;;;;;;30.02;35.11;101915.66;5031217;28;20033;-68
2022/06/28 11:50:49;;;;;;;2.83;1.00;;;;;;;30.07;35.18;101915.03;5030594;28;20152;-68
2022/06/28 11:53:18;;;;;;;4.40;1.35;;;;;;;30.10;34.92;101911.84;5028167;28;20045;-68
2022/06/28 11:55:48;;;;;;;3.45;1.35;;;;;;;30.15;34.17;101907.38;5030955;28;20502;-68
2022/06/28 11:58:20;;;;;;;2.88;0.80;;;;;;;30.19;34.29;101907.78;5032678;28;20068;-68